sensor_id;sensor_type;location;lat;lon;timestamp;temperature;humidity
40660;DHT22;26753;45.544;9.232;2023-02-18T00:01:18;9.10;99.90
40660;DHT22;26753;45.544;9.232;2023-02-18T00:03:45;12.90;99.90
40660;DHT22;26753;45.544;9.232;2023-02-18T00:06:12;10.70;99.90
40660;DHT22;26753;45.544;9.232;2023-02-18T00:08:41;12.90;99.90
40660;DHT22;26753;45.544;9.232;2023-02-18T00:11:07;12.20;99.90
40660;DHT22;26753;45.544;9.232;2023-02-18T00:13:33;12.60;99.90
40660;DHT22;26753;45.544;9.232;2023-02-18T00:16:00;11.70;99.90
40660;DHT22;26753;45.544;9.232;2023-02-18T00:18:28;13.90;99.90
40660;DHT22;26753;45.544;9.232;2023-02-18T00:20:53;9.40;99.90
40660;DHT22;26753;45.544;9.232;2023-02-18T00:23:19;10.90;99.90
40660;DHT22;26753;45.544;9.232;2023-02-18T00:25:58;10.60;99.90
40660;DHT22;26753;45.544;9.232;2023-02-18T00:28:24;12.20;99.90
40660;DHT22;26753;45.544;9.232;2023-02-18T00:30:49;11.50;99.90
40660;DHT22;26753;45.544;9.232;2023-02-18T00:33:15;10.10;99.90
40660;DHT22;26753;45.544;9.232;2023-02-18T00:35:41;11.00;99.90
40660;DHT22;26753;45.544;9.232;2023-02-18T00:38:22;12.30;99.90
40660;DHT22;26753;45.544;9.232;2023-02-18T00:40:48;10.50;99.90
40660;DHT22;26753;45.544;9.232;2023-02-18T00:43:17;9.70;99.90
40660;DHT22;26753;45.544;9.232;2023-02-18T00:45:42;9.30;99.90
40660;DHT22;26753;45.544;9.232;2023-02-18T00:48:08;11.60;99.90
40660;DHT22;26753;45.544;9.232;2023-02-18T00:50:34;10.70;99.90
40660;DHT22;26753;45.544;9.232;2023-02-18T00:53:00;9.20;99.90
40660;DHT22;26753;45.544;9.232;2023-02-18T00:57:54;12.80;99.90
40660;DHT22;26753;45.544;9.232;2023-02-18T01:00:20;10.60;99.90
40660;DHT22;26753;45.544;9.232;2023-02-18T01:02:50;10.20;99.90
40660;DHT22;26753;45.544;9.232;2023-02-18T01:05:19;12.10;99.90
40660;DHT22;26753;45.544;9.232;2023-02-18T01:07:51;11.20;99.90
40660;DHT22;26753;45.544;9.232;2023-02-18T01:12:48;10.40;99.90
40660;DHT22;26753;45.544;9.232;2023-02-18T01:15:16;9.20;99.90
40660;DHT22;26753;45.544;9.232;2023-02-18T01:17:42;10.50;99.90
40660;DHT22;26753;45.544;9.232;2023-02-18T01:20:09;8.60;99.90
40660;DHT22;26753;45.544;9.232;2023-02-18T01:22:45;11.10;99.90
40660;DHT22;26753;45.544;9.232;2023-02-18T01:25:16;12.10;99.90
40660;DHT22;26753;45.544;9.232;2023-02-18T01:36:40;9.20;99.90
40660;DHT22;26753;45.544;9.232;2023-02-18T01:39:14;11.70;99.90
40660;DHT22;26753;45.544;9.232;2023-02-18T01:41:48;12.30;99.90
40660;DHT22;26753;45.544;9.232;2023-02-18T01:44:15;10.60;99.90
40660;DHT22;26753;45.544;9.232;2023-02-18T01:46:41;10.20;99.90
40660;DHT22;26753;45.544;9.232;2023-02-18T01:49:11;10.10;99.90
40660;DHT22;26753;45.544;9.232;2023-02-18T01:51:46;10.80;99.90
40660;DHT22;26753;45.544;9.232;2023-02-18T01:56:53;9.60;99.90
40660;DHT22;26753;45.544;9.232;2023-02-18T01:59:20;11.10;99.90
40660;DHT22;26753;45.544;9.232;2023-02-18T02:01:47;10.20;99.90
40660;DHT22;26753;45.544;9.232;2023-02-18T02:04:13;10.30;99.90
40660;DHT22;26753;45.544;9.232;2023-02-18T02:06:45;8.70;99.90
40660;DHT22;26753;45.544;9.232;2023-02-18T02:14:24;10.00;99.90
40660;DHT22;26753;45.544;9.232;2023-02-18T02:16:57;11.00;99.90
40660;DHT22;26753;45.544;9.232;2023-02-18T02:35:50;8.50;99.90
40660;DHT22;26753;45.544;9.232;2023-02-18T02:38:23;9.60;99.90
40660;DHT22;26753;45.544;9.232;2023-02-18T02:50:23;11.50;99.90
40660;DHT22;26753;45.544;9.232;2023-02-18T02:53:20;9.50;99.90
40660;DHT22;26753;45.544;9.232;2023-02-18T02:55:58;12.10;99.90
40660;DHT22;26753;45.544;9.232;2023-02-18T02:58:23;10.20;99.90
40660;DHT22;26753;45.544;9.232;2023-02-18T03:09:10;11.00;99.90
40660;DHT22;26753;45.544;9.232;2023-02-18T03:12:40;10.10;99.90
40660;DHT22;26753;45.544;9.232;2023-02-18T03:18:07;8.60;99.90
40660;DHT22;26753;45.544;9.232;2023-02-18T03:20:38;8.80;99.90
40660;DHT22;26753;45.544;9.232;2023-02-18T03:23:08;10.70;99.90
40660;DHT22;26753;45.544;9.232;2023-02-18T03:31:56;9.30;99.90
40660;DHT22;26753;45.544;9.232;2023-02-18T03:34:28;11.10;99.90
40660;DHT22;26753;45.544;9.232;2023-02-18T03:36:54;10.00;99.90
40660;DHT22;26753;45.544;9.232;2023-02-18T03:39:21;10.60;99.90
40660;DHT22;26753;45.544;9.232;2023-02-18T03:41:49;10.50;99.90
40660;DHT22;26753;45.544;9.232;2023-02-18T03:44:15;10.10;99.90
40660;DHT22;26753;45.544;9.232;2023-02-18T03:46:42;10.00;99.90
40660;DHT22;26753;45.544;9.232;2023-02-18T03:49:09;9.40;99.90
40660;DHT22;26753;45.544;9.232;2023-02-18T03:51:41;9.20;99.90
40660;DHT22;26753;45.544;9.232;2023-02-18T03:54:10;10.60;99.90
40660;DHT22;26753;45.544;9.232;2023-02-18T03:56:38;7.50;99.90
40660;DHT22;26753;45.544;9.232;2023-02-18T03:59:04;11.30;99.90
40660;DHT22;26753;45.544;9.232;2023-02-18T04:01:30;10.00;99.90
40660;DHT22;26753;45.544;9.232;2023-02-18T04:04:00;10.20;99.90
40660;DHT22;26753;45.544;9.232;2023-02-18T04:06:25;10.80;99.90
40660;DHT22;26753;45.544;9.232;2023-02-18T04:08:51;10.20;99.90
40660;DHT22;26753;45.544;9.232;2023-02-18T04:11:22;8.30;99.90
40660;DHT22;26753;45.544;9.232;2023-02-18T04:13:48;9.00;99.90
40660;DHT22;26753;45.544;9.232;2023-02-18T04:16:14;10.10;99.90
40660;DHT22;26753;45.544;9.232;2023-02-18T04:18:40;9.30;99.90
40660;DHT22;26753;45.544;9.232;2023-02-18T04:21:06;9.40;99.90
40660;DHT22;26753;45.544;9.232;2023-02-18T04:23:34;9.20;99.90
40660;DHT22;26753;45.544;9.232;2023-02-18T04:26:00;10.10;99.90
40660;DHT22;26753;45.544;9.232;2023-02-18T04:30:54;8.90;99.90
40660;DHT22;26753;45.544;9.232;2023-02-18T04:33:20;8.30;99.90
40660;DHT22;26753;45.544;9.232;2023-02-18T04:35:45;9.20;99.90
40660;DHT22;26753;45.544;9.232;2023-02-18T04:38:11;8.80;99.90
40660;DHT22;26753;45.544;9.232;2023-02-18T04:40:37;8.50;99.90
40660;DHT22;26753;45.544;9.232;2023-02-18T04:43:03;9.90;99.90
40660;DHT22;26753;45.544;9.232;2023-02-18T04:45:29;10.20;99.90
40660;DHT22;26753;45.544;9.232;2023-02-18T04:47:55;9.90;99.90
40660;DHT22;26753;45.544;9.232;2023-02-18T04:50:20;7.90;99.90
40660;DHT22;26753;45.544;9.232;2023-02-18T04:52:46;9.90;99.90
40660;DHT22;26753;45.544;9.232;2023-02-18T04:55:12;8.40;99.90
40660;DHT22;26753;45.544;9.232;2023-02-18T04:57:48;10.40;99.90
40660;DHT22;26753;45.544;9.232;2023-02-18T05:00:15;8.60;99.90
40660;DHT22;26753;45.544;9.232;2023-02-18T05:02:42;9.80;99.90
40660;DHT22;26753;45.544;9.232;2023-02-18T05:05:08;7.90;99.90
40660;DHT22;26753;45.544;9.232;2023-02-18T05:10:00;8.80;99.90
40660;DHT22;26753;45.544;9.232;2023-02-18T05:12:25;8.20;99.90
40660;DHT22;26753;45.544;9.232;2023-02-18T05:14:51;8.20;99.90
40660;DHT22;26753;45.544;9.232;2023-02-18T05:19:43;9.40;99.90
40660;DHT22;26753;45.544;9.232;2023-02-18T05:22:12;8.30;99.90
40660;DHT22;26753;45.544;9.232;2023-02-18T05:24:38;9.80;99.90
40660;DHT22;26753;45.544;9.232;2023-02-18T05:27:03;8.20;99.90
40660;DHT22;26753;45.544;9.232;2023-02-18T05:29:29;9.60;99.90
40660;DHT22;26753;45.544;9.232;2023-02-18T05:31:57;11.40;99.90
40660;DHT22;26753;45.544;9.232;2023-02-18T05:37:00;8.60;99.90
40660;DHT22;26753;45.544;9.232;2023-02-18T05:39:46;10.90;99.90
40660;DHT22;26753;45.544;9.232;2023-02-18T05:42:27;8.50;99.90
40660;DHT22;26753;45.544;9.232;2023-02-18T05:44:53;8.90;99.90
40660;DHT22;26753;45.544;9.232;2023-02-18T05:47:29;9.00;99.90
40660;DHT22;26753;45.544;9.232;2023-02-18T05:49:58;10.60;99.90
40660;DHT22;26753;45.544;9.232;2023-02-18T05:52:24;9.70;99.90
40660;DHT22;26753;45.544;9.232;2023-02-18T05:54:50;8.00;99.90
40660;DHT22;26753;45.544;9.232;2023-02-18T05:57:15;10.70;99.90
40660;DHT22;26753;45.544;9.232;2023-02-18T06:03:15;9.90;99.90
40660;DHT22;26753;45.544;9.232;2023-02-18T06:05:52;10.70;99.90
40660;DHT22;26753;45.544;9.232;2023-02-18T06:08:18;9.20;99.90
40660;DHT22;26753;45.544;9.232;2023-02-18T06:10:52;9.20;99.90
40660;DHT22;26753;45.544;9.232;2023-02-18T06:13:21;10.10;99.90
40660;DHT22;26753;45.544;9.232;2023-02-18T06:15:50;9.40;99.90
40660;DHT22;26753;45.544;9.232;2023-02-18T06:18:17;8.40;99.90
40660;DHT22;26753;45.544;9.232;2023-02-18T06:21:01;7.60;99.90
40660;DHT22;26753;45.544;9.232;2023-02-18T06:23:26;10.00;99.90
40660;DHT22;26753;45.544;9.232;2023-02-18T06:25:52;8.60;99.90
40660;DHT22;26753;45.544;9.232;2023-02-18T06:28:17;10.20;99.90
40660;DHT22;26753;45.544;9.232;2023-02-18T06:30:48;9.20;99.90
40660;DHT22;26753;45.544;9.232;2023-02-18T06:33:19;8.20;99.90
40660;DHT22;26753;45.544;9.232;2023-02-18T06:38:11;7.90;99.90
40660;DHT22;26753;45.544;9.232;2023-02-18T06:40:37;9.00;99.90
40660;DHT22;26753;45.544;9.232;2023-02-18T06:43:03;8.90;99.90
40660;DHT22;26753;45.544;9.232;2023-02-18T06:45:28;10.20;99.90
40660;DHT22;26753;45.544;9.232;2023-02-18T06:47:54;8.20;99.90
40660;DHT22;26753;45.544;9.232;2023-02-18T06:55:15;9.60;99.90
40660;DHT22;26753;45.544;9.232;2023-02-18T06:57:40;9.50;99.90
40660;DHT22;26753;45.544;9.232;2023-02-18T07:00:06;10.20;99.90
40660;DHT22;26753;45.544;9.232;2023-02-18T07:02:35;7.60;99.90
40660;DHT22;26753;45.544;9.232;2023-02-18T07:05:01;8.90;99.90
40660;DHT22;26753;45.544;9.232;2023-02-18T07:07:40;9.30;99.90
40660;DHT22;26753;45.544;9.232;2023-02-18T07:10:09;10.30;99.90
40660;DHT22;26753;45.544;9.232;2023-02-18T07:12:35;9.40;99.90
40660;DHT22;26753;45.544;9.232;2023-02-18T07:15:04;9.50;99.90
40660;DHT22;26753;45.544;9.232;2023-02-18T07:17:30;10.00;99.90
40660;DHT22;26753;45.544;9.232;2023-02-18T07:19:55;7.80;99.90
40660;DHT22;26753;45.544;9.232;2023-02-18T07:22:25;10.20;99.90
40660;DHT22;26753;45.544;9.232;2023-02-18T07:24:53;8.50;99.90
40660;DHT22;26753;45.544;9.232;2023-02-18T07:27:19;7.50;99.90
40660;DHT22;26753;45.544;9.232;2023-02-18T07:29:46;8.70;99.90
40660;DHT22;26753;45.544;9.232;2023-02-18T07:32:12;10.00;99.90
40660;DHT22;26753;45.544;9.232;2023-02-18T07:34:48;10.70;99.90
40660;DHT22;26753;45.544;9.232;2023-02-18T07:40:50;11.60;99.90
40660;DHT22;26753;45.544;9.232;2023-02-18T07:43:19;10.20;99.90
40660;DHT22;26753;45.544;9.232;2023-02-18T07:51:50;12.00;99.90
40660;DHT22;26753;45.544;9.232;2023-02-18T07:57:23;11.30;99.90
40660;DHT22;26753;45.544;9.232;2023-02-18T07:59:58;11.90;99.90
40660;DHT22;26753;45.544;9.232;2023-02-18T08:08:58;12.30;99.90
40660;DHT22;26753;45.544;9.232;2023-02-18T08:11:24;10.40;99.90
40660;DHT22;26753;45.544;9.232;2023-02-18T08:14:26;10.20;99.90
40660;DHT22;26753;45.544;9.232;2023-02-18T08:16:55;12.20;99.90
40660;DHT22;26753;45.544;9.232;2023-02-18T08:19:24;10.20;99.90
40660;DHT22;26753;45.544;9.232;2023-02-18T08:21:49;10.00;99.90
40660;DHT22;26753;45.544;9.232;2023-02-18T08:24:24;11.90;99.90
40660;DHT22;26753;45.544;9.232;2023-02-18T08:26:50;10.70;99.90
40660;DHT22;26753;45.544;9.232;2023-02-18T08:32:27;10.80;99.90
40660;DHT22;26753;45.544;9.232;2023-02-18T08:35:01;11.80;99.90
40660;DHT22;26753;45.544;9.232;2023-02-18T08:37:27;13.00;99.90
40660;DHT22;26753;45.544;9.232;2023-02-18T08:42:19;13.00;99.90
40660;DHT22;26753;45.544;9.232;2023-02-18T08:47:10;12.50;99.90
40660;DHT22;26753;45.544;9.232;2023-02-18T08:49:36;10.90;99.90
40660;DHT22;26753;45.544;9.232;2023-02-18T08:52:05;13.60;99.90
40660;DHT22;26753;45.544;9.232;2023-02-18T08:54:30;11.40;99.90
40660;DHT22;26753;45.544;9.232;2023-02-18T08:56:56;11.50;99.90
40660;DHT22;26753;45.544;9.232;2023-02-18T08:59:25;11.20;99.90
40660;DHT22;26753;45.544;9.232;2023-02-18T09:04:17;12.30;99.90
40660;DHT22;26753;45.544;9.232;2023-02-18T09:06:45;12.80;99.90
40660;DHT22;26753;45.544;9.232;2023-02-18T09:11:37;11.60;99.90
40660;DHT22;26753;45.544;9.232;2023-02-18T09:14:03;12.70;99.90
40660;DHT22;26753;45.544;9.232;2023-02-18T09:16:28;13.20;99.90
40660;DHT22;26753;45.544;9.232;2023-02-18T09:18:55;12.20;99.90
40660;DHT22;26753;45.544;9.232;2023-02-18T09:21:23;13.00;99.90
40660;DHT22;26753;45.544;9.232;2023-02-18T09:23:50;13.30;99.90
40660;DHT22;26753;45.544;9.232;2023-02-18T09:26:17;13.70;99.90
40660;DHT22;26753;45.544;9.232;2023-02-18T09:28:42;14.40;99.90
40660;DHT22;26753;45.544;9.232;2023-02-18T09:31:09;14.50;99.90
40660;DHT22;26753;45.544;9.232;2023-02-18T09:33:36;14.50;99.90
40660;DHT22;26753;45.544;9.232;2023-02-18T09:36:02;13.30;99.90
40660;DHT22;26753;45.544;9.232;2023-02-18T09:38:28;13.00;99.90
40660;DHT22;26753;45.544;9.232;2023-02-18T09:40:53;14.50;99.90
40660;DHT22;26753;45.544;9.232;2023-02-18T09:43:31;13.80;99.90
40660;DHT22;26753;45.544;9.232;2023-02-18T09:46:01;15.60;99.90
40660;DHT22;26753;45.544;9.232;2023-02-18T09:48:28;15.20;99.90
40660;DHT22;26753;45.544;9.232;2023-02-18T09:50:56;15.20;99.90
40660;DHT22;26753;45.544;9.232;2023-02-18T09:53:22;15.40;99.90
40660;DHT22;26753;45.544;9.232;2023-02-18T09:55:48;16.30;99.90
40660;DHT22;26753;45.544;9.232;2023-02-18T09:58:19;14.70;99.90
40660;DHT22;26753;45.544;9.232;2023-02-18T10:00:54;13.80;99.90
40660;DHT22;26753;45.544;9.232;2023-02-18T10:03:21;14.90;99.90
40660;DHT22;26753;45.544;9.232;2023-02-18T10:06:09;14.70;99.90
40660;DHT22;26753;45.544;9.232;2023-02-18T10:08:33;14.60;99.90
40660;DHT22;26753;45.544;9.232;2023-02-18T10:10:59;14.40;99.90
40660;DHT22;26753;45.544;9.232;2023-02-18T10:13:29;15.90;99.90
40660;DHT22;26753;45.544;9.232;2023-02-18T10:15:55;15.00;99.90
40660;DHT22;26753;45.544;9.232;2023-02-18T10:20:50;15.10;99.90
40660;DHT22;26753;45.544;9.232;2023-02-18T10:23:16;15.10;99.90
40660;DHT22;26753;45.544;9.232;2023-02-18T10:25:44;13.70;99.90
40660;DHT22;26753;45.544;9.232;2023-02-18T10:28:12;15.20;99.90
40660;DHT22;26753;45.544;9.232;2023-02-18T10:35:52;16.00;99.90
40660;DHT22;26753;45.544;9.232;2023-02-18T10:40:47;14.80;99.90
40660;DHT22;26753;45.544;9.232;2023-02-18T10:45:47;15.10;99.90
40660;DHT22;26753;45.544;9.232;2023-02-18T10:51:00;15.30;99.90
40660;DHT22;26753;45.544;9.232;2023-02-18T10:53:32;16.00;99.90
40660;DHT22;26753;45.544;9.232;2023-02-18T10:56:47;15.10;99.90
40660;DHT22;26753;45.544;9.232;2023-02-18T10:58:47;16.10;99.90
40660;DHT22;26753;45.544;9.232;2023-02-18T11:01:14;16.30;99.90
40660;DHT22;26753;45.544;9.232;2023-02-18T11:06:30;16.60;99.90
40660;DHT22;26753;45.544;9.232;2023-02-18T11:08:55;16.70;99.90
40660;DHT22;26753;45.544;9.232;2023-02-18T11:11:28;17.00;99.90
40660;DHT22;26753;45.544;9.232;2023-02-18T11:13:59;17.20;99.90
40660;DHT22;26753;45.544;9.232;2023-02-18T11:16:44;16.70;99.90
40660;DHT22;26753;45.544;9.232;2023-02-18T11:22:05;17.10;99.90
40660;DHT22;26753;45.544;9.232;2023-02-18T11:24:31;17.40;99.90
40660;DHT22;26753;45.544;9.232;2023-02-18T11:26:56;17.60;99.90
40660;DHT22;26753;45.544;9.232;2023-02-18T11:29:23;17.50;99.90
40660;DHT22;26753;45.544;9.232;2023-02-18T11:31:51;17.60;99.90
40660;DHT22;26753;45.544;9.232;2023-02-18T11:34:21;17.70;99.90
40660;DHT22;26753;45.544;9.232;2023-02-18T11:36:51;17.80;99.90
40660;DHT22;26753;45.544;9.232;2023-02-18T11:39:21;17.90;99.90
40660;DHT22;26753;45.544;9.232;2023-02-18T11:42:11;18.20;99.90
40660;DHT22;26753;45.544;9.232;2023-02-18T11:44:38;18.30;99.90
40660;DHT22;26753;45.544;9.232;2023-02-18T11:49:38;18.20;99.90
40660;DHT22;26753;45.544;9.232;2023-02-18T11:52:11;18.50;99.90
40660;DHT22;26753;45.544;9.232;2023-02-18T11:54:43;18.60;99.90
40660;DHT22;26753;45.544;9.232;2023-02-18T11:57:26;18.90;99.90
40660;DHT22;26753;45.544;9.232;2023-02-18T11:59:52;19.10;99.90
40660;DHT22;26753;45.544;9.232;2023-02-18T12:02:24;19.20;99.90
40660;DHT22;26753;45.544;9.232;2023-02-18T12:04:55;19.30;99.90
40660;DHT22;26753;45.544;9.232;2023-02-18T12:07:24;19.50;99.90
40660;DHT22;26753;45.544;9.232;2023-02-18T12:09:55;19.40;99.90
40660;DHT22;26753;45.544;9.232;2023-02-18T12:12:42;19.50;99.90
40660;DHT22;26753;45.544;9.232;2023-02-18T12:15:15;19.80;99.90
40660;DHT22;26753;45.544;9.232;2023-02-18T12:25:32;19.70;99.90
40660;DHT22;26753;45.544;9.232;2023-02-18T12:41:08;21.90;97.90
40660;DHT22;26753;45.544;9.232;2023-02-18T12:46:28;26.50;91.70
40660;DHT22;26753;45.544;9.232;2023-02-18T13:01:53;31.00;66.40
40660;DHT22;26753;45.544;9.232;2023-02-18T13:13:16;34.90;61.70
40660;DHT22;26753;45.544;9.232;2023-02-18T13:16:16;35.30;60.10
40660;DHT22;26753;45.544;9.232;2023-02-18T13:21:05;35.40;57.30
40660;DHT22;26753;45.544;9.232;2023-02-18T13:23:34;36.30;56.50
40660;DHT22;26753;45.544;9.232;2023-02-18T13:26:02;36.60;55.50
40660;DHT22;26753;45.544;9.232;2023-02-18T13:31:13;38.50;52.80
40660;DHT22;26753;45.544;9.232;2023-02-18T13:36:21;40.00;51.40
40660;DHT22;26753;45.544;9.232;2023-02-18T13:41:16;43.40;49.30
40660;DHT22;26753;45.544;9.232;2023-02-18T13:43:43;42.10;48.10
40660;DHT22;26753;45.544;9.232;2023-02-18T13:48:47;39.50;48.10
40660;DHT22;26753;45.544;9.232;2023-02-18T13:56:45;39.20;48.20
40660;DHT22;26753;45.544;9.232;2023-02-18T14:13:23;38.60;48.00
40660;DHT22;26753;45.544;9.232;2023-02-18T14:15:47;39.10;47.80
40660;DHT22;26753;45.544;9.232;2023-02-18T14:18:30;40.50;47.20
40660;DHT22;26753;45.544;9.232;2023-02-18T14:21:17;42.90;46.90
40660;DHT22;26753;45.544;9.232;2023-02-18T14:23:53;42.70;46.00
40660;DHT22;26753;45.544;9.232;2023-02-18T14:26:24;44.00;45.70
40660;DHT22;26753;45.544;9.232;2023-02-18T14:29:03;44.30;44.40
40660;DHT22;26753;45.544;9.232;2023-02-18T14:34:35;43.60;44.40
40660;DHT22;26753;45.544;9.232;2023-02-18T14:37:19;41.40;44.60
40660;DHT22;26753;45.544;9.232;2023-02-18T14:42:28;41.00;44.40
40660;DHT22;26753;45.544;9.232;2023-02-18T14:50:04;38.90;45.50
40660;DHT22;26753;45.544;9.232;2023-02-18T14:55:43;38.60;46.30
40660;DHT22;26753;45.544;9.232;2023-02-18T15:00:58;37.70;46.70
40660;DHT22;26753;45.544;9.232;2023-02-18T15:03:29;39.30;47.00
40660;DHT22;26753;45.544;9.232;2023-02-18T15:05:55;40.70;45.60
40660;DHT22;26753;45.544;9.232;2023-02-18T15:08:22;39.40;45.20
40660;DHT22;26753;45.544;9.232;2023-02-18T15:13:43;35.40;46.30
40660;DHT22;26753;45.544;9.232;2023-02-18T15:16:13;31.40;49.90
40660;DHT22;26753;45.544;9.232;2023-02-18T15:19:24;28.90;52.50
40660;DHT22;26753;45.544;9.232;2023-02-18T15:21:30;27.60;54.30
40660;DHT22;26753;45.544;9.232;2023-02-18T15:24:07;26.80;55.30
40660;DHT22;26753;45.544;9.232;2023-02-18T15:26:40;25.60;56.60
40660;DHT22;26753;45.544;9.232;2023-02-18T15:29:14;24.80;58.00
40660;DHT22;26753;45.544;9.232;2023-02-18T15:31:40;24.10;59.60
40660;DHT22;26753;45.544;9.232;2023-02-18T15:34:19;23.50;60.50
40660;DHT22;26753;45.544;9.232;2023-02-18T15:36:50;23.50;61.10
40660;DHT22;26753;45.544;9.232;2023-02-18T15:42:23;23.40;61.50
40660;DHT22;26753;45.544;9.232;2023-02-18T15:44:55;23.00;61.80
40660;DHT22;26753;45.544;9.232;2023-02-18T15:47:33;23.00;62.20
40660;DHT22;26753;45.544;9.232;2023-02-18T15:50:20;22.60;63.10
40660;DHT22;26753;45.544;9.232;2023-02-18T15:52:50;22.30;64.20
40660;DHT22;26753;45.544;9.232;2023-02-18T15:55:42;22.00;64.70
40660;DHT22;26753;45.544;9.232;2023-02-18T16:01:30;21.90;65.90
40660;DHT22;26753;45.544;9.232;2023-02-18T16:03:58;21.90;66.30
40660;DHT22;26753;45.544;9.232;2023-02-18T16:06:28;21.70;67.00
40660;DHT22;26753;45.544;9.232;2023-02-18T16:09:06;21.60;67.50
40660;DHT22;26753;45.544;9.232;2023-02-18T16:11:36;21.30;68.40
40660;DHT22;26753;45.544;9.232;2023-02-18T16:17:18;20.80;70.10
40660;DHT22;26753;45.544;9.232;2023-02-18T16:30:21;20.50;72.10
40660;DHT22;26753;45.544;9.232;2023-02-18T16:32:47;20.30;72.60
40660;DHT22;26753;45.544;9.232;2023-02-18T16:35:31;20.20;73.00
40660;DHT22;26753;45.544;9.232;2023-02-18T16:37:56;20.00;74.00
40660;DHT22;26753;45.544;9.232;2023-02-18T16:49:25;19.70;75.60
40660;DHT22;26753;45.544;9.232;2023-02-18T16:51:58;19.60;76.40
40660;DHT22;26753;45.544;9.232;2023-02-18T16:54:24;19.30;77.40
40660;DHT22;26753;45.544;9.232;2023-02-18T16:57:01;19.20;77.70
40660;DHT22;26753;45.544;9.232;2023-02-18T17:02:33;18.80;79.20
40660;DHT22;26753;45.544;9.232;2023-02-18T17:05:03;18.70;79.80
40660;DHT22;26753;45.544;9.232;2023-02-18T17:07:35;18.50;80.90
40660;DHT22;26753;45.544;9.232;2023-02-18T17:10:22;18.30;81.50
40660;DHT22;26753;45.544;9.232;2023-02-18T17:13:40;18.20;82.50
40660;DHT22;26753;45.544;9.232;2023-02-18T17:15:45;18.10;83.30
40660;DHT22;26753;45.544;9.232;2023-02-18T17:18:14;17.80;85.10
40660;DHT22;26753;45.544;9.232;2023-02-18T17:20:59;17.70;86.40
40660;DHT22;26753;45.544;9.232;2023-02-18T17:23:27;17.60;86.90
40660;DHT22;26753;45.544;9.232;2023-02-18T17:25:55;17.60;88.10
40660;DHT22;26753;45.544;9.232;2023-02-18T17:28:21;17.50;89.00
40660;DHT22;26753;45.544;9.232;2023-02-18T17:31:21;17.50;89.50
40660;DHT22;26753;45.544;9.232;2023-02-18T17:33:39;17.40;90.40
40660;DHT22;26753;45.544;9.232;2023-02-18T17:36:14;17.30;90.80
40660;DHT22;26753;45.544;9.232;2023-02-18T17:38:40;17.10;91.90
40660;DHT22;26753;45.544;9.232;2023-02-18T17:41:09;17.00;93.10
40660;DHT22;26753;45.544;9.232;2023-02-18T17:43:35;16.80;93.50
40660;DHT22;26753;45.544;9.232;2023-02-18T17:46:02;16.80;94.10
40660;DHT22;26753;45.544;9.232;2023-02-18T17:48:28;16.70;95.10
40660;DHT22;26753;45.544;9.232;2023-02-18T17:50:56;16.60;95.80
40660;DHT22;26753;45.544;9.232;2023-02-18T17:53:25;16.60;97.00
40660;DHT22;26753;45.544;9.232;2023-02-18T17:55:57;16.60;97.40
40660;DHT22;26753;45.544;9.232;2023-02-18T17:58:25;16.50;98.50
40660;DHT22;26753;45.544;9.232;2023-02-18T18:00:54;16.40;99.30
40660;DHT22;26753;45.544;9.232;2023-02-18T18:03:23;16.30;99.90
40660;DHT22;26753;45.544;9.232;2023-02-18T18:05:49;16.20;99.90
40660;DHT22;26753;45.544;9.232;2023-02-18T18:08:19;16.10;99.90
40660;DHT22;26753;45.544;9.232;2023-02-18T18:10:48;15.90;99.90
40660;DHT22;26753;45.544;9.232;2023-02-18T18:13:26;15.90;99.90
40660;DHT22;26753;45.544;9.232;2023-02-18T18:15:51;15.80;99.90
40660;DHT22;26753;45.544;9.232;2023-02-18T18:18:17;15.70;99.90
40660;DHT22;26753;45.544;9.232;2023-02-18T18:20:45;15.60;99.90
40660;DHT22;26753;45.544;9.232;2023-02-18T18:23:11;15.60;99.90
40660;DHT22;26753;45.544;9.232;2023-02-18T18:25:53;15.50;99.90
40660;DHT22;26753;45.544;9.232;2023-02-18T18:28:23;15.40;99.90
40660;DHT22;26753;45.544;9.232;2023-02-18T18:30:57;15.30;99.90
40660;DHT22;26753;45.544;9.232;2023-02-18T18:33:27;14.90;99.90
40660;DHT22;26753;45.544;9.232;2023-02-18T18:36:02;15.20;99.90
40660;DHT22;26753;45.544;9.232;2023-02-18T18:38:39;15.20;99.90
40660;DHT22;26753;45.544;9.232;2023-02-18T18:41:20;15.00;99.90
40660;DHT22;26753;45.544;9.232;2023-02-18T18:43:53;14.90;99.90
40660;DHT22;26753;45.544;9.232;2023-02-18T18:46:22;14.80;99.90
40660;DHT22;26753;45.544;9.232;2023-02-18T18:48:47;14.70;99.90
40660;DHT22;26753;45.544;9.232;2023-02-18T18:51:14;14.80;99.90
40660;DHT22;26753;45.544;9.232;2023-02-18T18:53:40;14.70;99.90
40660;DHT22;26753;45.544;9.232;2023-02-18T18:56:08;14.60;99.90
40660;DHT22;26753;45.544;9.232;2023-02-18T18:58:38;14.40;99.90
40660;DHT22;26753;45.544;9.232;2023-02-18T19:01:04;14.40;99.90
40660;DHT22;26753;45.544;9.232;2023-02-18T19:03:31;14.40;99.90
40660;DHT22;26753;45.544;9.232;2023-02-18T19:06:02;14.40;99.90
40660;DHT22;26753;45.544;9.232;2023-02-18T19:08:33;15.00;99.90
40660;DHT22;26753;45.544;9.232;2023-02-18T19:11:11;14.20;99.90
40660;DHT22;26753;45.544;9.232;2023-02-18T19:13:49;14.40;99.90
40660;DHT22;26753;45.544;9.232;2023-02-18T19:16:35;13.60;99.90
40660;DHT22;26753;45.544;9.232;2023-02-18T19:19:10;13.60;99.90
40660;DHT22;26753;45.544;9.232;2023-02-18T19:21:38;15.00;99.90
40660;DHT22;26753;45.544;9.232;2023-02-18T19:24:22;14.80;99.90
40660;DHT22;26753;45.544;9.232;2023-02-18T19:26:48;15.40;99.90
40660;DHT22;26753;45.544;9.232;2023-02-18T19:29:16;13.90;99.90
40660;DHT22;26753;45.544;9.232;2023-02-18T19:32:16;13.80;99.90
40660;DHT22;26753;45.544;9.232;2023-02-18T19:34:43;13.80;99.90
40660;DHT22;26753;45.544;9.232;2023-02-18T19:37:11;17.00;99.90
40660;DHT22;26753;45.544;9.232;2023-02-18T19:39:43;13.60;99.90
40660;DHT22;26753;45.544;9.232;2023-02-18T19:42:44;13.00;99.90
40660;DHT22;26753;45.544;9.232;2023-02-18T19:45:06;12.70;99.90
40660;DHT22;26753;45.544;9.232;2023-02-18T19:50:29;12.90;99.90
40660;DHT22;26753;45.544;9.232;2023-02-18T19:53:03;14.60;99.90
40660;DHT22;26753;45.544;9.232;2023-02-18T19:55:31;13.30;99.90
40660;DHT22;26753;45.544;9.232;2023-02-18T19:58:10;14.10;99.90
40660;DHT22;26753;45.544;9.232;2023-02-18T20:00:36;13.50;99.90
40660;DHT22;26753;45.544;9.232;2023-02-18T20:03:05;11.60;99.90
40660;DHT22;26753;45.544;9.232;2023-02-18T20:05:30;12.70;99.90
40660;DHT22;26753;45.544;9.232;2023-02-18T20:08:03;13.10;99.90
40660;DHT22;26753;45.544;9.232;2023-02-18T20:10:28;14.50;99.90
40660;DHT22;26753;45.544;9.232;2023-02-18T20:12:54;13.90;99.90
40660;DHT22;26753;45.544;9.232;2023-02-18T20:15:20;13.00;99.90
40660;DHT22;26753;45.544;9.232;2023-02-18T20:17:48;11.80;99.90
40660;DHT22;26753;45.544;9.232;2023-02-18T20:20:23;11.50;99.90
40660;DHT22;26753;45.544;9.232;2023-02-18T20:22:51;13.70;99.90
40660;DHT22;26753;45.544;9.232;2023-02-18T20:25:17;13.70;99.90
40660;DHT22;26753;45.544;9.232;2023-02-18T20:27:42;14.10;99.90